• Join FlightAware (Why Join?)
  • Login
  • US Flag 
05:34AM EDT


 

Airport Tracker/Info


-or-


 

Live Flight TrackerFlight Track Log ✈ N68ER ✈ 23-Jun-2013 ✈ KHLN - KMSO

Flight Track Log - Related Links

Times and Time Zones

All times are in EDT time to prevent confusion due to time zone crossing. See the N68ER flight status page for this flight to view local times or setup timezone preferences in your user account.

Time Position Orientation Groundspeed Altitude Reporting Facility
EDT Latitude Longitude Course Direction KTS MPH feet Rate Location/Type
11:04PM 46.6469 -112.0522 278° West 225 259 10,300  Level Salt Lake Center
11:05PM 46.6506 -112.1431 273° West 233 268 11,900 780 Climbing Salt Lake Center
11:06PM 46.6873 -112.5773 282° West  Level FlightAware Approximate
11:06PM 46.6531 -112.2619 272° West 276 318 11,900  Level Salt Lake Center
11:07PM 46.7038 -112.6782 296° West  Level FlightAware Approximate
11:07PM 46.6703 -112.3922 281° West 318 366 11,900  Level Salt Lake Center
11:08PM 46.7228 -112.7774 278° West  Level FlightAware Approximate
11:08PM 46.6897 -112.5142 283° West 316 364 11,900  Level Salt Lake Center
11:09PM 46.7331 -112.8805 278° West  Level FlightAware Approximate
11:09PM 46.7072 -112.6358 282° West 312 359 11,900  Level Salt Lake Center
11:10PM 46.7256 -112.7583 282° West 310 357 11,900  Level Salt Lake Center
11:11PM 46.7433 -112.8828 282° West 311 358 12,000  Climbing Salt Lake Center
11:12PM 46.7622 -113.0094 282° West 316 364 12,000  Level Salt Lake Center
11:13PM 46.7817 -113.1336 283° West 316 364 12,000  Level Salt Lake Center
11:14PM 46.8022 -113.2856 281° West 318 366 12,000  Level Salt Lake Center
11:15PM 46.8203 -113.4117 282° West 320 368 12,000 -420 Level Salt Lake Center
11:16PM 46.8403 -113.5464 282° West 317 365 11,200 -1,260 Descending Salt Lake Center
11:17PM 46.8575 -113.6686 282° West 310 357 9,500 -1,620 Descending Salt Lake Center
11:18PM 46.8742 -113.7867 282° West 299 344 8,000 -1,620 Descending Salt Lake Center
11:19PM 46.8786 -113.9033 273° West 289 333 6,300 -1,260 Descending Salt Lake Center
11:20PM 46.8631 -114.0064 258° West 233 268 5,500 -1,140 Descending Salt Lake Center
11:21PM 46.8914 -114.0514 313° West 171 197 4,100 -1,140 Descending Salt Lake Center
11:22PM 46.9111 -114.0836 312° West 119 137 3,200 -900 Descending Salt Lake Center
11:24PM 46.9000 -114.0833 270° West  Level FlightAware Approximate